Time;durP1;ratioP1;P1;durP2;ratioP2;P2;SDS_P1;SDS_P2;PMS_P1;PMS_P2;Temp;Humidity;BMP_temperature;BMP_pressure;BME280_temperature;BME280_humidity;BME280_pressure;Samples;Min_cycle;Max_cycle;Signal;HPM_P1;HPM_P2
2023/09/09 00:00:10;;;;;;;6.97;3.70;;;;;;;26.44;38.10;98829.69;2095992;28;20525;-48
2023/09/09 00:01:12;;;;;;;4.55;3.58;;;;;;;26.44;38.41;98825.09;2093513;28;20048;-48
2023/09/09 00:02:13;;;;;;;6.03;4.13;;;;;;;26.46;38.28;98828.38;2094497;28;20079;-49
2023/09/09 00:03:15;;;;;;;5.53;3.50;;;;;;;26.44;38.64;98827.81;2094402;28;20430;-48
2023/09/09 00:04:15;;;;;;;7.70;3.65;;;;;;;26.43;38.67;98828.06;2094504;28;20517;-49
2023/09/09 00:05:17;;;;;;;5.70;3.40;;;;;;;26.43;38.60;98828.88;2095306;28;20126;-51
2023/09/09 00:06:18;;;;;;;4.55;3.78;;;;;;;26.43;38.31;98825.34;2095860;28;20054;-48
2023/09/09 00:07:19;;;;;;;3.72;3.30;;;;;;;26.38;38.63;98826.06;2094332;28;20675;-48
2023/09/09 00:08:21;;;;;;;8.68;3.67;;;;;;;26.27;39.20;98821.56;2093427;28;20040;-48
2023/09/09 00:09:22;;;;;;;4.07;3.38;;;;;;;26.21;39.60;98826.09;2095138;28;20047;-50
2023/09/09 00:10:23;;;;;;;3.60;3.30;;;;;;;26.26;39.34;98828.09;2096100;28;20046;-50
2023/09/09 00:11:24;;;;;;;3.95;3.35;;;;;;;26.24;39.08;98822.06;2089651;28;20052;-51
2023/09/09 00:12:26;;;;;;;6.35;3.58;;;;;;;26.20;39.24;98824.47;2092485;28;20082;-50
2023/09/09 00:13:28;;;;;;;3.78;3.08;;;;;;;26.18;39.63;98826.59;2092831;28;20048;-47
2023/09/09 00:14:30;;;;;;;4.15;3.10;;;;;;;26.17;39.19;98832.31;2092849;28;20045;-49
2023/09/09 00:15:32;;;;;;;4.57;3.60;;;;;;;26.17;39.32;98824.16;2094120;28;20415;-51
2023/09/09 00:16:34;;;;;;;3.40;3.10;;;;;;;26.15;39.44;98826.28;2095268;28;20055;-50
2023/09/09 00:17:36;;;;;;;4.15;3.38;;;;;;;26.13;39.08;98823.00;2094046;28;20066;-49
2023/09/09 00:18:37;;;;;;;4.03;3.67;;;;;;;26.14;39.63;98813.78;2094833;28;20624;-48
2023/09/09 00:19:39;;;;;;;5.32;3.85;;;;;;;26.12;39.51;98824.06;2091721;28;20164;-51
2023/09/09 00:20:40;;;;;;;3.55;3.08;;;;;;;26.06;39.72;98821.28;2092951;28;20084;-49
2023/09/09 00:21:41;;;;;;;5.35;3.50;;;;;;;26.06;39.79;98826.72;2092699;28;20048;-50
2023/09/09 00:22:43;;;;;;;4.57;3.75;;;;;;;26.10;39.22;98815.34;2093213;28;20122;-51
2023/09/09 00:23:44;;;;;;;6.25;3.75;;;;;;;26.10;39.22;98820.78;2091179;28;20048;-51
2023/09/09 00:24:46;;;;;;;3.83;3.42;;;;;;;26.08;39.49;98824.56;2094667;28;20387;-48
2023/09/09 00:25:47;;;;;;;4.70;3.05;;;;;;;26.10;39.14;98823.50;2094227;28;20052;-52
2023/09/09 00:26:49;;;;;;;4.05;3.20;;;;;;;26.10;39.58;98818.06;2092755;28;20097;-49
2023/09/09 00:27:50;;;;;;;6.43;3.08;;;;;;;26.07;39.17;98825.63;2091909;28;20052;-51
2023/09/09 00:28:53;;;;;;;3.42;2.55;;;;;;;26.09;39.07;98822.66;2092701;28;20135;-51
2023/09/09 00:29:54;;;;;;;8.30;4.10;;;;;;;26.07;39.31;98830.25;2091034;28;20048;-49
2023/09/09 00:30:56;;;;;;;4.07;3.50;;;;;;;26.08;39.33;98827.28;2092797;28;20051;-49
2023/09/09 00:31:56;;;;;;;4.45;2.92;;;;;;;26.06;39.12;98834.03;2093007;28;20048;-51
2023/09/09 00:32:59;;;;;;;3.83;3.10;;;;;;;26.06;39.54;98829.44;2093426;28;20079;-51
2023/09/09 00:34:00;;;;;;;4.32;3.13;;;;;;;26.06;39.28;98834.03;2092724;28;20052;-52
2023/09/09 00:35:01;;;;;;;4.15;3.65;;;;;;;26.05;39.14;98838.66;2095511;28;20072;-51
2023/09/09 00:36:04;;;;;;;3.30;2.80;;;;;;;26.05;39.48;98835.13;2091534;28;20052;-51
2023/09/09 00:37:04;;;;;;;10.57;3.50;;;;;;;26.01;39.48;98826.63;2093718;28;20055;-50
2023/09/09 00:38:06;;;;;;;6.78;3.28;;;;;;;26.05;39.69;98835.13;2091325;28;20078;-51
2023/09/09 00:39:08;;;;;;;6.78;3.22;;;;;;;26.04;39.73;98828.03;2091998;28;20048;-53
2023/09/09 00:40:11;;;;;;;4.35;3.30;;;;;;;26.03;39.66;98829.09;2092463;28;20053;-51
2023/09/09 00:41:15;;;;;;;4.85;3.30;;;;;;;26.03;39.27;98835.34;2093358;28;20052;-48
2023/09/09 00:42:16;;;;;;;4.97;3.25;;;;;;;26.03;39.63;98832.63;2092238;28;20521;-52
2023/09/09 00:43:18;;;;;;;3.33;3.03;;;;;;;26.03;39.42;98835.34;2093456;28;20086;-49
2023/09/09 00:44:20;;;;;;;6.78;3.97;;;;;;;26.05;39.38;98830.50;2094739;28;20044;-49
2023/09/09 00:45:21;;;;;;;3.10;2.80;;;;;;;26.04;39.56;98826.13;2090075;28;20543;-48
2023/09/09 00:46:22;;;;;;;3.97;3.20;;;;;;;26.07;39.71;98828.34;2093450;28;20087;-51
2023/09/09 00:47:24;;;;;;;6.03;3.60;;;;;;;26.13;39.49;98829.25;2091957;28;20055;-51
2023/09/09 00:48:26;;;;;;;5.10;3.65;;;;;;;26.10;39.32;98831.63;2092250;28;20063;-52
2023/09/09 00:49:27;;;;;;;6.07;3.22;;;;;;;26.12;39.73;98832.22;2092920;28;20048;-50
2023/09/09 00:50:30;;;;;;;6.10;3.25;;;;;;;26.12;39.17;98830.31;2090248;28;21594;-51
2023/09/09 00:51:31;;;;;;;4.35;3.70;;;;;;;26.16;39.41;98820.63;2092285;28;20051;-50
2023/09/09 00:52:32;;;;;;;3.83;3.40;;;;;;;26.17;39.29;98826.88;2092059;28;20075;-50
2023/09/09 00:53:35;;;;;;;4.90;3.47;;;;;;;26.14;39.19;98824.66;2091742;28;20079;-47
2023/09/09 00:54:36;;;;;;;5.07;3.38;;;;;;;26.13;39.20;98825.72;2091655;28;20048;-50
2023/09/09 00:55:39;;;;;;;6.20;3.97;;;;;;;26.13;39.43;98817.56;2092778;28;20118;-51
2023/09/09 00:56:42;;;;;;;7.45;3.05;;;;;;;26.19;39.01;98827.47;2089727;28;20048;-50
2023/09/09 00:57:42;;;;;;;5.10;3.33;;;;;;;26.25;39.37;98823.72;2088928;28;20048;-52
2023/09/09 00:58:43;;;;;;;4.97;3.10;;;;;;;26.24;39.18;98824.78;2092921;28;20537;-48
2023/09/09 00:59:48;;;;;;;5.03;3.00;;;;;;;26.17;39.33;98818.72;2092164;28;20501;-51
2023/09/09 01:00:48;;;;;;;3.42;2.78;;;;;;;26.14;39.68;98819.22;2091032;28;21131;-48
2023/09/09 01:01:50;;;;;;;6.85;3.47;;;;;;;26.12;39.58;98816.72;2088671;28;20044;-51
2023/09/09 01:02:51;;;;;;;5.85;4.55;;;;;;;26.14;39.19;98819.22;2093181;28;22899;-51
2023/09/09 01:03:53;;;;;;;4.53;3.63;;;;;;;26.10;39.46;98813.44;2089174;28;20163;-48
2023/09/09 01:04:54;;;;;;;5.50;3.42;;;;;;;26.10;39.47;98812.63;2092557;28;20605;-50
2023/09/09 01:05:57;;;;;;;6.82;3.45;;;;;;;26.16;38.97;98815.19;2089918;28;20040;-48
2023/09/09 01:07:01;;;;;;;5.43;3.30;;;;;;;26.12;39.29;98818.63;2091381;28;20094;-49
2023/09/09 01:08:03;;;;;;;4.85;3.58;;;;;;;26.11;39.14;98814.28;2090464;28;20044;-47
2023/09/09 01:09:05;;;;;;;5.78;3.22;;;;;;;26.14;38.96;98814.59;2091976;28;20043;-48
2023/09/09 01:10:07;;;;;;;9.07;4.35;;;;;;;26.18;38.88;98814.91;2093287;28;20074;-51
2023/09/09 01:11:08;;;;;;;3.80;3.40;;;;;;;26.11;39.72;98827.88;2092458;28;20708;-48
2023/09/09 01:12:11;;;;;;;5.15;3.88;;;;;;;26.13;39.42;98812.13;2091909;28;20051;-51
2023/09/09 01:13:13;;;;;;;4.90;3.20;;;;;;;26.08;39.75;98810.16;2092465;28;20057;-48
2023/09/09 01:14:16;;;;;;;7.07;3.75;;;;;;;26.05;39.70;98822.34;2094195;28;20140;-48
2023/09/09 01:15:19;;;;;;;4.63;2.88;;;;;;;26.06;39.28;98809.59;2093255;28;20710;-48
2023/09/09 01:16:21;;;;;;;3.25;2.95;;;;;;;26.04;39.13;98809.81;2092879;28;20044;-49
2023/09/09 01:17:23;;;;;;;3.90;3.42;;;;;;;26.02;39.36;98805.69;2093566;28;20049;-51
2023/09/09 01:18:24;;;;;;;4.95;3.22;;;;;;;26.03;39.78;98812.78;2092727;28;20040;-47
2023/09/09 01:19:26;;;;;;;3.47;3.13;;;;;;;26.00;39.53;98808.69;2092725;28;20044;-47
2023/09/09 01:20:31;;;;;;;4.88;3.40;;;;;;;25.97;39.61;98808.34;2090836;28;20075;-48
2023/09/09 01:21:34;;;;;;;6.18;2.95;;;;;;;25.99;39.69;98807.03;2092066;28;20063;-50
2023/09/09 01:22:37;;;;;;;6.68;3.45;;;;;;;25.99;39.54;98804.31;2090951;28;20049;-51
2023/09/09 01:23:39;;;;;;;3.33;2.70;;;;;;;25.97;39.59;98803.75;2090392;28;20063;-50
2023/09/09 01:24:43;;;;;;;5.07;3.28;;;;;;;25.95;39.68;98799.63;2090389;28;20512;-47
2023/09/09 01:25:44;;;;;;;4.88;3.35;;;;;;;25.92;39.55;98803.66;2084106;28;20088;-48
2023/09/09 01:26:46;;;;;;;4.13;3.17;;;;;;;25.93;39.82;98807.19;2094962;28;20044;-47
2023/09/09 01:27:48;;;;;;;4.40;3.70;;;;;;;25.93;39.54;98809.91;2092644;28;20112;-48
2023/09/09 01:28:49;;;;;;;4.07;3.20;;;;;;;25.91;40.01;98810.16;2092754;28;20056;-48
2023/09/09 01:29:51;;;;;;;5.75;2.95;;;;;;;25.93;39.69;98809.91;2090883;28;20052;-49
2023/09/09 01:30:52;;;;;;;5.05;3.17;;;;;;;25.93;39.56;98807.19;2094532;28;20062;-51
2023/09/09 01:31:54;;;;;;;4.30;3.67;;;;;;;25.92;39.95;98811.81;2091055;28;20051;-51
2023/09/09 01:32:55;;;;;;;6.63;3.42;;;;;;;25.95;39.62;98805.06;2081223;28;20052;-49
2023/09/09 01:33:57;;;;;;;4.38;3.10;;;;;;;25.96;39.38;98807.50;2092382;28;20048;-52
2023/09/09 01:34:58;;;;;;;4.57;3.25;;;;;;;25.94;39.62;98812.38;2093288;28;20079;-49
2023/09/09 01:36:01;;;;;;;3.88;3.42;;;;;;;25.93;39.45;98812.63;2094133;28;20557;-51
2023/09/09 01:37:02;;;;;;;9.32;4.00;;;;;;;25.94;39.26;98812.38;2091379;28;20040;-48
2023/09/09 01:38:05;;;;;;;7.20;3.28;;;;;;;25.96;39.48;98807.50;2092780;28;20502;-49
2023/09/09 01:39:07;;;;;;;5.07;3.67;;;;;;;25.94;39.75;98811.56;2092623;28;20250;-52
2023/09/09 01:40:12;;;;;;;6.85;3.15;;;;;;;25.92;39.46;98803.66;2091965;28;20067;-49
2023/09/09 01:41:13;;;;;;;3.70;2.90;;;;;;;25.90;39.29;98808.50;2093364;28;20100;-50
2023/09/09 01:42:15;;;;;;;6.22;3.40;;;;;;;26.01;39.07;98810.31;2092114;28;20051;-51
2023/09/09 01:43:16;;;;;;;3.95;3.00;;;;;;;26.04;39.27;98800.84;2092773;28;20052;-49
2023/09/09 01:44:18;;;;;;;3.40;3.10;;;;;;;25.96;39.09;98804.78;2092982;28;20594;-50
2023/09/09 01:45:19;;;;;;;6.22;3.72;;;;;;;26.01;39.56;98802.16;2092755;28;20049;-48
2023/09/09 01:46:20;;;;;;;4.13;3.30;;;;;;;26.07;39.00;98801.16;2094356;28;20391;-51
2023/09/09 01:47:22;;;;;;;9.75;4.03;;;;;;;26.10;39.25;98802.56;2092584;28;20044;-56
2023/09/09 01:48:23;;;;;;;3.50;3.20;;;;;;;26.10;39.30;98805.28;2093309;28;20158;-52
2023/09/09 01:49:25;;;;;;;4.22;3.58;;;;;;;26.10;38.91;98801.75;2091708;28;20051;-51
2023/09/09 01:50:26;;;;;;;5.10;3.70;;;;;;;26.09;39.50;98800.94;2093151;28;20391;-50
2023/09/09 01:51:28;;;;;;;5.68;3.70;;;;;;;26.00;39.33;98792.38;2094025;28;20131;-49
2023/09/09 01:52:29;;;;;;;4.32;3.15;;;;;;;26.05;39.42;98795.16;2093419;28;20044;-52
2023/09/09 01:53:32;;;;;;;3.83;3.08;;;;;;;26.11;39.18;98803.41;2092320;28;20052;-48
2023/09/09 01:54:33;;;;;;;7.28;4.22;;;;;;;26.13;38.94;98803.97;2093785;28;20048;-50
2023/09/09 01:55:35;;;;;;;3.05;2.75;;;;;;;26.06;38.91;98799.53;2091585;28;20175;-50
2023/09/09 01:56:36;;;;;;;7.88;3.28;;;;;;;26.11;39.16;98797.97;2091773;28;20056;-52
2023/09/09 01:57:38;;;;;;;4.10;3.15;;;;;;;26.10;39.13;98793.59;2093400;28;20139;-47
2023/09/09 01:58:39;;;;;;;4.00;2.85;;;;;;;26.11;38.71;98795.25;2091578;28;20055;-51
2023/09/09 01:59:40;;;;;;;4.30;3.58;;;;;;;26.10;38.57;98793.59;2093587;28;20059;-48
2023/09/09 02:00:41;;;;;;;7.95;4.32;;;;;;;26.11;38.57;98787.91;2091867;28;20059;-49
2023/09/09 02:01:43;;;;;;;3.85;2.88;;;;;;;26.12;38.59;98786.00;2092256;28;20054;-55
2023/09/09 02:02:44;;;;;;;4.28;3.80;;;;;;;26.07;38.87;98792.19;2085649;28;20045;-49
2023/09/09 02:03:47;;;;;;;4.30;3.50;;;;;;;26.01;39.56;98791.28;2091604;28;20062;-50
2023/09/09 02:04:48;;;;;;;2.97;2.67;;;;;;;26.11;39.21;98792.53;2090507;28;20119;-53
2023/09/09 02:05:50;;;;;;;4.57;3.15;;;;;;;26.13;38.92;98795.81;2093532;28;20055;-49
2023/09/09 02:06:50;;;;;;;15.38;3.92;;;;;;;26.08;38.66;98794.66;2093221;28;20517;-48
2023/09/09 02:07:52;;;;;;;3.97;3.15;;;;;;;26.14;38.61;98792.03;2090823;28;20052;-50
2023/09/09 02:08:55;;;;;;;6.30;3.60;;;;;;;26.15;38.47;98790.94;2092274;28;21034;-49
2023/09/09 02:09:57;;;;;;;9.13;4.20;;;;;;;26.17;38.69;98799.69;2089804;28;20063;-50
2023/09/09 02:10:58;;;;;;;4.25;3.13;;;;;;;26.17;38.46;98800.50;2091369;28;20041;-48
2023/09/09 02:12:03;;;;;;;5.93;3.38;;;;;;;26.17;38.89;98794.25;2094718;28;20052;-48
2023/09/09 02:13:06;;;;;;;5.35;3.30;;;;;;;26.17;38.99;98792.34;2092283;28;20151;-50
2023/09/09 02:14:08;;;;;;;3.47;3.03;;;;;;;26.15;38.88;98797.19;2083135;28;20226;-53
2023/09/09 02:15:11;;;;;;;4.05;3.22;;;;;;;26.16;38.79;98792.59;2092188;28;20055;-47
2023/09/09 02:16:13;;;;;;;8.48;4.28;;;;;;;26.15;38.72;98793.66;2091880;28;20514;-47
2023/09/09 02:17:13;;;;;;;4.90;3.55;;;;;;;26.16;38.54;98790.72;2092952;28;20082;-48
2023/09/09 02:18:15;;;;;;;4.53;3.38;;;;;;;26.06;39.43;98798.72;2095595;28;20493;-50
2023/09/09 02:19:16;;;;;;;4.15;2.75;;;;;;;26.08;39.02;98791.13;2094285;28;20044;-50
2023/09/09 02:20:18;;;;;;;3.08;2.67;;;;;;;26.11;38.47;98792.53;2092716;28;20504;-48
2023/09/09 02:21:19;;;;;;;5.90;2.70;;;;;;;26.11;38.91;98798.78;2089509;28;20052;-47
2023/09/09 02:22:20;;;;;;;3.97;2.80;;;;;;;26.12;38.62;98795.00;2093279;28;20127;-47
2023/09/09 02:23:22;;;;;;;3.63;3.20;;;;;;;26.08;38.98;98800.09;2091397;28;20044;-48
2023/09/09 02:24:24;;;;;;;4.85;3.00;;;;;;;26.09;38.59;98800.94;2092285;28;20079;-47
2023/09/09 02:25:26;;;;;;;4.43;3.35;;;;;;;26.00;38.87;98797.00;2094482;28;20105;-47
2023/09/09 02:26:27;;;;;;;7.10;3.70;;;;;;;26.01;39.17;98799.44;2091509;28;20143;-46
2023/09/09 02:27:29;;;;;;;3.65;3.00;;;;;;;26.01;38.62;98795.91;2092282;28;20055;-51
2023/09/09 02:28:30;;;;;;;3.38;3.03;;;;;;;25.96;39.10;98802.06;2093789;28;20048;-46
2023/09/09 02:29:32;;;;;;;3.10;2.85;;;;;;;25.97;38.78;98801.03;2090453;28;20063;-46
2023/09/09 02:30:33;;;;;;;5.18;3.75;;;;;;;25.96;39.30;98807.50;2088113;28;20047;-49
2023/09/09 02:31:35;;;;;;;4.22;3.13;;;;;;;25.95;39.11;98800.44;2093226;28;20485;-47
2023/09/09 02:32:36;;;;;;;4.53;3.55;;;;;;;25.94;39.08;98803.41;2091670;28;20055;-47
2023/09/09 02:33:37;;;;;;;7.65;3.50;;;;;;;25.92;39.28;98805.56;2091330;28;20071;-47
2023/09/09 02:34:38;;;;;;;5.68;3.17;;;;;;;25.95;39.10;98805.88;2094145;28;20059;-46
2023/09/09 02:35:42;;;;;;;4.82;4.00;;;;;;;25.94;39.30;98804.25;2092005;28;22123;-49
2023/09/09 02:36:44;;;;;;;4.93;3.13;;;;;;;26.01;38.64;98796.72;2084998;28;21022;-48
2023/09/09 02:37:46;;;;;;;3.67;2.70;;;;;;;26.07;39.00;98797.63;2091318;28;20139;-48
2023/09/09 02:38:47;;;;;;;3.83;3.15;;;;;;;26.13;38.24;98801.25;2090026;28;20056;-49
2023/09/09 02:39:52;;;;;;;4.53;3.65;;;;;;;26.12;38.49;98805.03;2090829;28;20516;-48
2023/09/09 02:40:53;;;;;;;5.15;3.17;;;;;;;26.10;38.26;98799.03;2086709;28;20049;-46
2023/09/09 02:41:54;;;;;;;3.63;2.92;;;;;;;26.10;38.81;98809.91;2092861;28;20052;-51
2023/09/09 02:42:55;;;;;;;4.10;3.08;;;;;;;26.15;38.61;98801.81;2093397;28;20063;-49
2023/09/09 02:43:57;;;;;;;5.35;3.30;;;;;;;26.16;38.84;98806.19;2091337;28;20131;-47
2023/09/09 02:44:58;;;;;;;4.03;3.08;;;;;;;26.14;38.67;98805.63;2091699;28;20040;-48
2023/09/09 02:46:00;;;;;;;3.47;2.60;;;;;;;26.17;37.95;98805.13;2093028;28;20055;-48
2023/09/09 02:47:04;;;;;;;4.20;2.85;;;;;;;26.15;38.40;98802.63;2088444;28;20052;-50
2023/09/09 02:48:06;;;;;;;5.45;3.78;;;;;;;26.13;38.07;98807.50;2091693;28;20060;-48
2023/09/09 02:49:07;;;;;;;3.00;2.55;;;;;;;26.12;38.26;98805.03;2093195;28;20040;-47
2023/09/09 02:50:10;;;;;;;5.30;3.13;;;;;;;26.12;38.79;98802.31;2091423;28;20052;-49
2023/09/09 02:51:10;;;;;;;3.38;3.08;;;;;;;26.16;38.24;98804.31;2092210;28;20059;-48
2023/09/09 02:52:13;;;;;;;3.25;2.60;;;;;;;26.13;38.10;98804.78;2094307;28;20891;-47
2023/09/09 02:53:14;;;;;;;6.18;3.35;;;;;;;26.16;38.37;98808.91;2091316;28;20056;-49
2023/09/09 02:54:16;;;;;;;3.85;3.10;;;;;;;26.16;38.19;98800.75;2085055;28;20516;-48
2023/09/09 02:55:18;;;;;;;4.85;2.80;;;;;;;26.16;38.63;98808.91;2085015;28;20060;-48
2023/09/09 02:56:20;;;;;;;4.47;2.95;;;;;;;26.10;38.40;98802.56;2093095;28;20051;-48
2023/09/09 02:57:21;;;;;;;3.35;3.00;;;;;;;26.13;38.53;98801.25;2089229;28;20249;-48
2023/09/09 02:58:23;;;;;;;4.03;3.22;;;;;;;26.12;38.30;98805.03;2094744;28;20143;-48
2023/09/09 02:59:24;;;;;;;5.95;3.08;;;;;;;26.12;38.54;98805.84;2090935;28;21537;-48
2023/09/09 03:00:26;;;;;;;3.88;3.05;;;;;;;26.11;38.37;98800.69;2092529;28;20058;-48
2023/09/09 03:01:27;;;;;;;3.15;2.85;;;;;;;26.12;37.96;98805.03;2092040;28;20413;-48
2023/09/09 03:02:29;;;;;;;6.72;4.00;;;;;;;26.14;38.24;98802.91;2092489;28;20052;-48
2023/09/09 03:03:31;;;;;;;3.72;3.20;;;;;;;26.12;38.46;98805.03;2093740;28;20052;-48
2023/09/09 03:04:33;;;;;;;4.80;3.28;;;;;;;26.08;38.13;98805.53;2086649;28;20059;-47
2023/09/09 03:05:34;;;;;;;3.25;2.95;;;;;;;26.13;38.29;98803.97;2090701;28;20051;-48
2023/09/09 03:06:36;;;;;;;4.97;3.67;;;;;;;26.10;38.03;98802.56;2094092;28;20106;-48
2023/09/09 03:07:37;;;;;;;3.03;2.60;;;;;;;26.09;38.55;98806.34;2092124;28;20052;-49
2023/09/09 03:08:39;;;;;;;6.63;3.17;;;;;;;26.10;38.20;98799.84;2093747;28;20054;-48
2023/09/09 03:09:40;;;;;;;3.70;2.85;;;;;;;26.11;38.21;98803.41;2092839;28;20052;-48
2023/09/09 03:10:43;;;;;;;5.35;3.10;;;;;;;26.10;38.50;98799.84;2089591;28;20879;-48
2023/09/09 03:11:44;;;;;;;3.80;2.95;;;;;;;26.10;38.35;98802.56;2089860;28;20487;-49
2023/09/09 03:12:46;;;;;;;8.90;3.92;;;;;;;26.13;38.44;98799.34;2093178;28;20044;-47
2023/09/09 03:13:47;;;;;;;5.07;2.92;;;;;;;26.13;38.43;98804.78;2093354;28;20056;-48
2023/09/09 03:14:47;;;;;;;4.18;2.90;;;;;;;26.11;38.63;98797.97;2092371;28;21727;-50
2023/09/09 03:15:49;;;;;;;3.58;2.72;;;;;;;26.09;38.71;98798.22;2091406;28;20188;-48
2023/09/09 03:16:50;;;;;;;3.80;2.67;;;;;;;26.10;38.55;98801.75;2094545;28;20618;-47
2023/09/09 03:17:52;;;;;;;4.70;3.17;;;;;;;26.12;38.37;98799.59;2091228;28;20050;-48
2023/09/09 03:18:53;;;;;;;3.45;3.08;;;;;;;26.12;38.54;98799.59;2093312;28;20059;-48
2023/09/09 03:19:55;;;;;;;4.25;3.25;;;;;;;26.11;38.70;98803.41;2089576;28;20055;-47
2023/09/09 03:20:55;;;;;;;3.33;2.90;;;;;;;26.13;38.61;98803.97;2087820;28;20060;-48
2023/09/09 03:21:58;;;;;;;3.75;2.88;;;;;;;26.13;38.58;98798.53;2092030;28;20166;-47
2023/09/09 03:22:59;;;;;;;7.28;3.92;;;;;;;26.10;38.36;98802.56;2092279;28;20072;-47
2023/09/09 03:24:00;;;;;;;5.22;2.97;;;;;;;26.10;38.28;98801.75;2090641;28;20048;-50
2023/09/09 03:25:01;;;;;;;4.28;3.83;;;;;;;26.10;38.27;98797.13;2090665;28;20183;-48
2023/09/09 03:26:04;;;;;;;3.50;3.20;;;;;;;26.10;38.48;98799.84;2089372;28;21079;-49
2023/09/09 03:27:06;;;;;;;4.75;3.28;;;;;;;26.13;38.75;98798.53;2085250;28;20086;-47
2023/09/09 03:28:07;;;;;;;3.88;3.45;;;;;;;26.13;38.21;98801.25;2094507;28;20043;-48
2023/09/09 03:29:09;;;;;;;5.78;2.90;;;;;;;26.13;38.37;98801.25;2091673;28;20058;-47
2023/09/09 03:30:11;;;;;;;6.47;2.83;;;;;;;26.13;38.51;98801.25;2090642;28;20522;-48
2023/09/09 03:31:13;;;;;;;5.10;3.10;;;;;;;26.08;38.22;98802.00;2091500;28;20058;-48
2023/09/09 03:32:13;;;;;;;6.60;3.03;;;;;;;26.11;38.44;98793.34;2090484;28;20052;-48
2023/09/09 03:33:15;;;;;;;4.55;3.50;;;;;;;26.10;38.69;98797.13;2090352;28;20131;-48
2023/09/09 03:34:17;;;;;;;3.67;2.97;;;;;;;26.12;38.49;98795.00;2090901;28;20059;-47
2023/09/09 03:35:18;;;;;;;4.57;2.92;;;;;;;26.10;38.30;98796.31;2092917;28;20040;-48
2023/09/09 03:36:20;;;;;;;4.30;3.22;;;;;;;26.07;38.50;98794.91;2091340;28;20036;-48
2023/09/09 03:37:21;;;;;;;3.50;2.88;;;;;;;26.07;38.59;98797.63;2091781;28;20119;-48
2023/09/09 03:38:23;;;;;;;3.47;3.00;;;;;;;26.10;38.06;98790.88;2092147;28;20074;-50
2023/09/09 03:39:24;;;;;;;5.63;3.17;;;;;;;26.04;38.67;98793.50;2088757;28;20052;-51
2023/09/09 03:40:28;;;;;;;4.05;3.15;;;;;;;26.07;38.23;98793.00;2094831;28;20142;-47
2023/09/09 03:41:30;;;;;;;5.47;3.38;;;;;;;26.08;38.71;98794.66;2090069;28;20045;-50
2023/09/09 03:42:33;;;;;;;5.22;2.78;;;;;;;26.08;38.42;98791.94;2086495;28;20044;-48
2023/09/09 03:43:35;;;;;;;3.65;3.20;;;;;;;26.06;38.30;98791.38;2094104;28;20047;-49
2023/09/09 03:44:37;;;;;;;6.60;2.90;;;;;;;26.07;38.10;98798.44;2093476;28;21845;-48
2023/09/09 03:45:38;;;;;;;5.78;2.65;;;;;;;26.04;38.30;98788.06;2082792;28;20067;-48
2023/09/09 03:46:40;;;;;;;4.88;2.85;;;;;;;26.05;38.35;98789.72;2093519;28;20134;-48
2023/09/09 03:47:41;;;;;;;4.53;3.13;;;;;;;26.05;38.22;98789.72;2090398;28;20040;-50
2023/09/09 03:48:41;;;;;;;4.40;2.97;;;;;;;26.05;38.62;98791.63;2093685;28;20121;-49
2023/09/09 03:49:43;;;;;;;7.05;3.10;;;;;;;26.04;38.42;98788.06;2095006;28;20063;-53
2023/09/09 03:50:44;;;;;;;2.95;2.65;;;;;;;26.05;38.57;98789.72;2093750;28;20098;-48
2023/09/09 03:51:46;;;;;;;4.78;3.00;;;;;;;26.04;38.68;98787.25;2095257;28;20865;-51
2023/09/09 03:52:47;;;;;;;3.92;3.45;;;;;;;26.02;38.05;98784.81;2094719;28;20135;-47
2023/09/09 03:53:49;;;;;;;3.08;2.70;;;;;;;25.99;38.59;98788.03;2093004;28;20151;-50
2023/09/09 03:54:50;;;;;;;3.17;2.85;;;;;;;26.00;38.48;98789.66;2095613;28;20040;-50
2023/09/09 03:55:52;;;;;;;5.85;3.40;;;;;;;26.03;38.18;98793.78;2094056;28;20488;-48
2023/09/09 03:56:54;;;;;;;3.78;3.22;;;;;;;26.06;38.53;98793.28;2094696;28;20048;-50
2023/09/09 03:57:56;;;;;;;8.30;3.28;;;;;;;26.04;38.19;98790.78;2087738;28;20117;-47
2023/09/09 03:58:56;;;;;;;3.80;3.05;;;;;;;26.06;38.32;98793.28;2093422;28;20590;-51
2023/09/09 03:59:58;;;;;;;6.25;3.47;;;;;;;26.05;38.16;98794.34;2094836;28;20040;-48
2023/09/09 04:01:04;;;;;;;5.63;3.35;;;;;;;26.03;38.31;98793.78;2093714;28;20066;-48
2023/09/09 04:02:06;;;;;;;3.28;2.95;;;;;;;26.03;38.09;98797.31;2093343;28;20044;-51
2023/09/09 04:03:07;;;;;;;5.30;2.97;;;;;;;26.06;38.45;98799.53;2089035;28;20051;-49
2023/09/09 04:04:08;;;;;;;5.60;3.75;;;;;;;26.03;38.37;98796.50;2086749;28;20054;-50
2023/09/09 04:05:10;;;;;;;5.10;3.50;;;;;;;26.04;38.01;98789.97;2090805;28;20724;-49
2023/09/09 04:06:12;;;;;;;4.88;2.90;;;;;;;26.02;38.47;98790.25;2094991;28;20051;-51
2023/09/09 04:07:14;;;;;;;4.60;3.00;;;;;;;26.02;38.29;98789.38;2091899;28;20055;-47
2023/09/09 04:08:15;;;;;;;3.47;2.75;;;;;;;26.02;38.50;98794.81;2091891;28;20045;-49
2023/09/09 04:09:22;;;;;;;3.35;3.05;;;;;;;26.01;38.42;98796.72;2093936;28;20516;-51
2023/09/09 04:10:23;;;;;;;3.33;2.72;;;;;;;25.93;38.16;98786.28;2092514;28;20045;-49
2023/09/09 04:11:25;;;;;;;3.65;3.03;;;;;;;25.95;38.67;98789.56;2091947;28;20048;-52
2023/09/09 04:12:27;;;;;;;4.22;3.15;;;;;;;25.91;38.53;98793.03;2092959;28;20055;-51
2023/09/09 04:13:29;;;;;;;3.50;3.20;;;;;;;25.89;38.81;98790.56;2092286;28;20636;-48
2023/09/09 04:14:30;;;;;;;5.00;2.92;;;;;;;25.88;38.78;98790.81;2090734;28;20048;-52
2023/09/09 04:15:32;;;;;;;4.40;3.33;;;;;;;25.91;38.29;98793.03;2091493;28;21958;-50
2023/09/09 04:16:33;;;;;;;5.05;2.97;;;;;;;25.85;38.36;98794.84;2098209;28;20051;-51
2023/09/09 04:17:35;;;;;;;3.80;3.00;;;;;;;25.87;38.64;98791.88;2093466;28;20127;-51
2023/09/09 04:18:36;;;;;;;4.63;3.08;;;;;;;25.85;38.14;98792.97;2093484;28;20043;-48
2023/09/09 04:19:38;;;;;;;4.57;2.60;;;;;;;25.85;38.11;98789.41;2093107;28;20422;-49
2023/09/09 04:20:39;;;;;;;3.13;2.70;;;;;;;25.83;38.36;98799.72;2095784;28;20051;-51
2023/09/09 04:21:40;;;;;;;3.83;2.90;;;;;;;25.88;38.18;98798.94;2092046;28;20068;-48
2023/09/09 04:22:42;;;;;;;3.90;3.50;;;;;;;25.85;38.41;98792.13;2090873;28;20463;-50
2023/09/09 04:23:43;;;;;;;2.92;2.60;;;;;;;25.78;38.54;98789.53;2089698;28;20101;-51
2023/09/09 04:24:45;;;;;;;5.35;3.00;;;;;;;25.77;38.38;98795.22;2094310;28;20655;-48
2023/09/09 04:25:46;;;;;;;3.10;2.78;;;;;;;25.76;38.26;98791.69;2085797;28;20052;-48
2023/09/09 04:26:48;;;;;;;4.22;3.10;;;;;;;25.77;38.48;98797.94;2092808;28;20062;-50
2023/09/09 04:27:51;;;;;;;4.43;2.50;;;;;;;25.84;38.28;98796.72;2091760;28;20051;-51
2023/09/09 04:28:52;;;;;;;5.95;3.30;;;;;;;25.84;38.20;98799.44;2094389;28;20159;-51
2023/09/09 04:29:53;;;;;;;4.22;3.30;;;;;;;25.85;38.19;98794.84;2089034;28;20644;-50
2023/09/09 04:30:55;;;;;;;4.60;3.35;;;;;;;25.88;38.34;98797.06;2093526;28;20135;-52
2023/09/09 04:31:56;;;;;;;4.07;3.25;;;;;;;25.91;38.48;98795.75;2091526;28;20697;-50
2023/09/09 04:32:58;;;;;;;4.85;3.35;;;;;;;25.82;38.48;98790.69;2094811;28;20048;-51
2023/09/09 04:33:59;;;;;;;4.10;2.85;;;;;;;25.83;38.44;98797.00;2090200;28;20691;-49
2023/09/09 04:35:01;;;;;;;4.03;3.30;;;;;;;25.82;38.43;98798.00;2094922;28;20059;-48
2023/09/09 04:36:02;;;;;;;3.85;3.22;;;;;;;25.78;38.28;98796.88;2094662;28;20557;-48
2023/09/09 04:37:04;;;;;;;3.92;3.13;;;;;;;25.74;38.26;98793.00;2093709;28;20056;-51
2023/09/09 04:38:05;;;;;;;5.53;3.55;;;;;;;25.77;38.69;98797.94;2092652;28;20051;-50
2023/09/09 04:39:07;;;;;;;4.68;3.58;;;;;;;25.76;38.22;98794.41;2092773;28;20056;-51
2023/09/09 04:40:10;;;;;;;5.60;3.45;;;;;;;25.75;38.47;98795.47;2084264;28;20059;-48
2023/09/09 04:41:11;;;;;;;5.05;3.47;;;;;;;25.76;38.86;98799.81;2095071;28;20565;-48
2023/09/09 04:42:14;;;;;;;4.40;3.20;;;;;;;25.75;38.45;98800.09;2090470;28;20426;-51
2023/09/09 04:43:20;;;;;;;4.57;3.00;;;;;;;25.78;38.40;98797.69;2091635;28;20048;-48
2023/09/09 04:44:21;;;;;;;3.42;2.78;;;;;;;25.78;38.56;98796.88;2091361;28;20578;-47
2023/09/09 04:45:24;;;;;;;6.18;3.45;;;;;;;25.78;38.60;98799.59;2093410;28;20051;-50
2023/09/09 04:46:25;;;;;;;6.15;3.05;;;;;;;25.78;38.66;98796.88;2092567;28;20506;-49
2023/09/09 04:47:26;;;;;;;3.47;3.17;;;;;;;25.74;38.26;98799.28;2093090;28;20052;-49
2023/09/09 04:48:27;;;;;;;6.55;3.50;;;;;;;25.73;38.36;98796.78;2093167;28;20059;-49
2023/09/09 04:49:29;;;;;;;5.65;3.50;;;;;;;25.69;38.46;98806.50;2092450;28;20048;-47
2023/09/09 04:50:30;;;;;;;6.47;3.15;;;;;;;25.69;38.85;98795.66;2092370;28;20074;-50